sensor_id;sensor_type;location;lat;lon;timestamp;pressure;altitude;pressure_sealevel;temperature;humidity
84483;BME280;74703;51.284;22.590;2023-12-20T00:02:01;98796.16;;;4.53;73.12
84483;BME280;74703;51.284;22.590;2023-12-20T00:07:02;98791.19;;;4.48;73.82
84483;BME280;74703;51.284;22.590;2023-12-20T00:12:03;98782.25;;;4.32;73.74
84483;BME280;74703;51.284;22.590;2023-12-20T00:17:04;98781.34;;;4.34;74.89
84483;BME280;74703;51.284;22.590;2023-12-20T00:22:04;98779.22;;;4.21;75.20
84483;BME280;74703;51.284;22.590;2023-12-20T00:27:05;98779.22;;;4.21;74.95
84483;BME280;74703;51.284;22.590;2023-12-20T00:32:06;98785.75;;;4.31;75.51
84483;BME280;74703;51.284;22.590;2023-12-20T00:37:06;98775.66;;;4.25;75.72
84483;BME280;74703;51.284;22.590;2023-12-20T00:42:07;98769.28;;;4.08;76.29
84483;BME280;74703;51.284;22.590;2023-12-20T00:47:07;98769.28;;;4.08;77.77
84483;BME280;74703;51.284;22.590;2023-12-20T00:52:08;98769.28;;;4.08;78.20
84483;BME280;74703;51.284;22.590;2023-12-20T00:57:09;98777.72;;;4.13;77.96
84483;BME280;74703;51.284;22.590;2023-12-20T01:02:09;98742.53;;;3.87;79.32
84483;BME280;74703;51.284;22.590;2023-12-20T01:07:10;98753.47;;;3.94;80.36
84483;BME280;74703;51.284;22.590;2023-12-20T01:12:10;98747.53;;;3.92;80.75
84483;BME280;74703;51.284;22.590;2023-12-20T01:17:11;98737.53;;;3.83;82.26
84483;BME280;74703;51.284;22.590;2023-12-20T01:22:11;98732.09;;;3.92;82.10
84483;BME280;74703;51.284;22.590;2023-12-20T01:27:12;98727.13;;;3.86;82.89
84483;BME280;74703;51.284;22.590;2023-12-20T01:32:12;98697.66;;;3.70;83.48
84483;BME280;74703;51.284;22.590;2023-12-20T01:37:13;98711.19;;;3.75;83.49
84483;BME280;74703;51.284;22.590;2023-12-20T01:42:14;98715.06;;;3.88;83.12
84483;BME280;74703;51.284;22.590;2023-12-20T01:47:14;98700.75;;;3.79;83.79
84483;BME280;74703;51.284;22.590;2023-12-20T01:52:15;98701.41;;;3.86;84.11
84483;BME280;74703;51.284;22.590;2023-12-20T01:57:16;98691.31;;;3.80;84.02
84483;BME280;74703;51.284;22.590;2023-12-20T02:02:17;98672.38;;;3.81;83.97
84483;BME280;74703;51.284;22.590;2023-12-20T02:07:18;98660.72;;;3.71;84.52
84483;BME280;74703;51.284;22.590;2023-12-20T02:12:19;98674.41;;;3.73;84.80
84483;BME280;74703;51.284;22.590;2023-12-20T02:17:20;98649.53;;;3.72;84.67
84483;BME280;74703;51.284;22.590;2023-12-20T02:22:21;98655.38;;;3.77;84.61
84483;BME280;74703;51.284;22.590;2023-12-20T02:27:22;98648.88;;;3.66;84.86
84483;BME280;74703;51.284;22.590;2023-12-20T02:32:24;98637.88;;;3.61;85.42
84483;BME280;74703;51.284;22.590;2023-12-20T02:37:29;98641.91;;;3.68;85.25
84483;BME280;74703;51.284;22.590;2023-12-20T02:42:29;98622.44;;;3.61;85.16
84483;BME280;74703;51.284;22.590;2023-12-20T02:47:30;98602.97;;;3.54;85.16
84483;BME280;74703;51.284;22.590;2023-12-20T02:52:30;98611.16;;;3.65;85.11
84483;BME280;74703;51.284;22.590;2023-12-20T02:57:31;98614.63;;;3.64;85.59
84483;BME280;74703;51.284;22.590;2023-12-20T03:02:33;98608.44;;;3.70;85.96
84483;BME280;74703;51.284;22.590;2023-12-20T03:07:34;98602.56;;;3.66;85.98
84483;BME280;74703;51.284;22.590;2023-12-20T03:12:36;98598.28;;;3.65;85.92
84483;BME280;74703;51.284;22.590;2023-12-20T03:17:37;98611.00;;;3.70;85.95
84483;BME280;74703;51.284;22.590;2023-12-20T03:22:37;98570.56;;;3.49;86.07
84483;BME280;74703;51.284;22.590;2023-12-20T03:27:38;98600.75;;;3.68;85.64
84483;BME280;74703;51.284;22.590;2023-12-20T03:32:39;98592.38;;;3.63;86.09
84483;BME280;74703;51.284;22.590;2023-12-20T03:37:39;98596.50;;;3.67;86.05
84483;BME280;74703;51.284;22.590;2023-12-20T03:42:40;98606.09;;;3.62;86.54
84483;BME280;74703;51.284;22.590;2023-12-20T03:47:40;98567.16;;;3.48;86.92
84483;BME280;74703;51.284;22.590;2023-12-20T03:52:41;98585.63;;;3.59;86.98
84483;BME280;74703;51.284;22.590;2023-12-20T03:57:42;98584.66;;;3.63;87.07
84483;BME280;74703;51.284;22.590;2023-12-20T04:02:42;98593.78;;;3.72;87.41
84483;BME280;74703;51.284;22.590;2023-12-20T04:07:43;98600.28;;;3.57;87.23
84483;BME280;74703;51.284;22.590;2023-12-20T04:12:44;98597.84;;;3.53;87.90
84483;BME280;74703;51.284;22.590;2023-12-20T04:17:44;98609.69;;;3.58;87.62
84483;BME280;74703;51.284;22.590;2023-12-20T04:22:45;98615.81;;;3.54;88.16
84483;BME280;74703;51.284;22.590;2023-12-20T04:27:45;98613.06;;;3.60;88.58
84483;BME280;74703;51.284;22.590;2023-12-20T04:32:46;98624.94;;;3.63;88.12
84483;BME280;74703;51.284;22.590;2023-12-20T04:37:47;98580.97;;;3.46;88.45
84483;BME280;74703;51.284;22.590;2023-12-20T04:42:49;98599.50;;;3.55;88.11
84483;BME280;74703;51.284;22.590;2023-12-20T04:47:51;98576.69;;;3.44;88.14
84483;BME280;74703;51.284;22.590;2023-12-20T04:52:51;98601.53;;;3.46;87.71
84483;BME280;74703;51.284;22.590;2023-12-20T04:57:52;98586.75;;;3.51;87.41
84483;BME280;74703;51.284;22.590;2023-12-20T05:02:53;98612.47;;;3.51;87.87
84483;BME280;74703;51.284;22.590;2023-12-20T05:07:53;98606.09;;;3.36;88.05
84483;BME280;74703;51.284;22.590;2023-12-20T05:12:54;98621.69;;;3.31;88.37
84483;BME280;74703;51.284;22.590;2023-12-20T05:17:54;98612.03;;;3.38;88.16
84483;BME280;74703;51.284;22.590;2023-12-20T05:22:55;98599.59;;;3.26;88.35
84483;BME280;74703;51.284;22.590;2023-12-20T05:27:55;98585.94;;;3.24;88.14
84483;BME280;74703;51.284;22.590;2023-12-20T05:32:56;98591.78;;;3.29;88.70
84483;BME280;74703;51.284;22.590;2023-12-20T05:37:57;98567.09;;;3.23;88.58
84483;BME280;74703;51.284;22.590;2023-12-20T05:42:57;98583.25;;;3.27;88.54
84483;BME280;74703;51.284;22.590;2023-12-20T05:47:58;98588.19;;;3.33;89.19
84483;BME280;74703;51.284;22.590;2023-12-20T05:52:59;98579.44;;;3.38;89.18
84483;BME280;74703;51.284;22.590;2023-12-20T05:57:59;98579.63;;;3.34;89.30
84483;BME280;74703;51.284;22.590;2023-12-20T06:03:00;98573.53;;;3.36;89.16
84483;BME280;74703;51.284;22.590;2023-12-20T06:08:00;98578.38;;;3.46;89.26
84483;BME280;74703;51.284;22.590;2023-12-20T06:13:03;98581.78;;;3.46;88.94
84483;BME280;74703;51.284;22.590;2023-12-20T06:18:05;98574.22;;;3.41;89.50
84483;BME280;74703;51.284;22.590;2023-12-20T06:23:05;98576.28;;;3.57;89.23
84483;BME280;74703;51.284;22.590;2023-12-20T06:28:06;98568.09;;;3.46;89.55
84483;BME280;74703;51.284;22.590;2023-12-20T06:33:07;98565.25;;;3.53;89.64
84483;BME280;74703;51.284;22.590;2023-12-20T06:38:07;98566.88;;;3.56;89.13
84483;BME280;74703;51.284;22.590;2023-12-20T06:43:09;98589.28;;;3.79;89.29
84483;BME280;74703;51.284;22.590;2023-12-20T06:48:10;98578.44;;;3.69;89.32
84483;BME280;74703;51.284;22.590;2023-12-20T06:53:12;98582.44;;;3.78;89.17
84483;BME280;74703;51.284;22.590;2023-12-20T06:58:12;98592.38;;;3.88;89.24
84483;BME280;74703;51.284;22.590;2023-12-20T07:03:13;98572.31;;;3.73;89.42
84483;BME280;74703;51.284;22.590;2023-12-20T07:08:13;98568.09;;;3.71;89.28
84483;BME280;74703;51.284;22.590;2023-12-20T07:13:15;98584.13;;;3.79;89.49
84483;BME280;74703;51.284;22.590;2023-12-20T07:18:16;98579.72;;;3.82;89.00
84483;BME280;74703;51.284;22.590;2023-12-20T07:23:16;98587.25;;;3.87;88.70
84483;BME280;74703;51.284;22.590;2023-12-20T07:28:17;98587.25;;;3.87;88.57
84483;BME280;74703;51.284;22.590;2023-12-20T07:33:19;98594.22;;;3.85;88.84
84483;BME280;74703;51.284;22.590;2023-12-20T07:38:20;98575.69;;;3.75;88.17
84483;BME280;74703;51.284;22.590;2023-12-20T07:43:21;98582.44;;;3.78;88.94
84483;BME280;74703;51.284;22.590;2023-12-20T07:48:21;98572.34;;;3.72;88.44
84483;BME280;74703;51.284;22.590;2023-12-20T07:53:22;98579.13;;;3.74;88.97
84483;BME280;74703;51.284;22.590;2023-12-20T07:58:22;98566.69;;;3.87;88.78
84483;BME280;74703;51.284;22.590;2023-12-20T08:03:23;98557.19;;;3.89;88.10
84483;BME280;74703;51.284;22.590;2023-12-20T08:08:24;98568.19;;;3.93;87.68
84483;BME280;74703;51.284;22.590;2023-12-20T08:13:24;98568.81;;;3.99;88.34
84483;BME280;74703;51.284;22.590;2023-12-20T08:18:26;98575.38;;;4.08;88.01
84483;BME280;74703;51.284;22.590;2023-12-20T08:23:27;98579.22;;;3.96;88.47
84483;BME280;74703;51.284;22.590;2023-12-20T08:28:27;98564.97;;;3.87;87.47
84483;BME280;74703;51.284;22.590;2023-12-20T08:33:29;98543.84;;;3.78;87.75
84483;BME280;74703;51.284;22.590;2023-12-20T08:38:29;98575.41;;;3.83;87.38
84483;BME280;74703;51.284;22.590;2023-12-20T08:43:31;98562.06;;;3.72;87.91
84483;BME280;74703;51.284;22.590;2023-12-20T08:48:32;98551.63;;;3.76;88.05
84483;BME280;74703;51.284;22.590;2023-12-20T08:53:32;98549.75;;;3.81;87.90
84483;BME280;74703;51.284;22.590;2023-12-20T08:58:33;98574.16;;;3.95;87.58
84483;BME280;74703;51.284;22.590;2023-12-20T09:03:36;98539.34;;;3.84;87.74
84483;BME280;74703;51.284;22.590;2023-12-20T09:08:36;98533.22;;;3.87;87.47
84483;BME280;74703;51.284;22.590;2023-12-20T09:13:37;98544.94;;;3.96;87.68
84483;BME280;74703;51.284;22.590;2023-12-20T09:18:38;98531.66;;;3.83;87.89
84483;BME280;74703;51.284;22.590;2023-12-20T09:23:38;98536.47;;;3.92;88.29
84483;BME280;74703;51.284;22.590;2023-12-20T09:28:39;98523.78;;;3.87;88.47
84483;BME280;74703;51.284;22.590;2023-12-20T09:33:44;98538.13;;;3.95;88.29
84483;BME280;74703;51.284;22.590;2023-12-20T09:38:44;98512.75;;;3.84;88.62
84483;BME280;74703;51.284;22.590;2023-12-20T09:43:45;98520.22;;;3.92;88.53
84483;BME280;74703;51.284;22.590;2023-12-20T09:48:45;98506.31;;;3.96;87.87
84483;BME280;74703;51.284;22.590;2023-12-20T09:53:47;98507.13;;;3.98;88.42
84483;BME280;74703;51.284;22.590;2023-12-20T09:58:49;98496.38;;;3.86;88.68
84483;BME280;74703;51.284;22.590;2023-12-20T10:03:51;98501.13;;;3.97;88.58
84483;BME280;74703;51.284;22.590;2023-12-20T10:08:52;98488.03;;;4.03;88.88
84483;BME280;74703;51.284;22.590;2023-12-20T10:13:59;98497.16;;;4.12;88.61
84483;BME280;74703;51.284;22.590;2023-12-20T10:19:01;98484.75;;;4.00;88.83
84483;BME280;74703;51.284;22.590;2023-12-20T10:24:02;98481.50;;;3.95;88.90
84483;BME280;74703;51.284;22.590;2023-12-20T10:29:05;98483.00;;;4.00;88.28
84483;BME280;74703;51.284;22.590;2023-12-20T10:34:05;98464.38;;;3.94;89.16
84483;BME280;74703;51.284;22.590;2023-12-20T10:39:08;98465.16;;;3.96;89.22
84483;BME280;74703;51.284;22.590;2023-12-20T10:44:12;98461.50;;;4.01;88.87
84483;BME280;74703;51.284;22.590;2023-12-20T10:49:14;98473.09;;;4.13;88.58
84483;BME280;74703;51.284;22.590;2023-12-20T10:54:16;98451.94;;;4.05;88.53
84483;BME280;74703;51.284;22.590;2023-12-20T10:59:19;98445.16;;;4.02;88.97
84483;BME280;74703;51.284;22.590;2023-12-20T11:04:25;98452.22;;;4.21;88.25
84483;BME280;74703;51.284;22.590;2023-12-20T11:09:33;98439.13;;;4.27;87.84
84483;BME280;74703;51.284;22.590;2023-12-20T11:14:46;98427.78;;;4.31;87.54
84483;BME280;74703;51.284;22.590;2023-12-20T11:25:08;98435.28;;;4.37;87.04
84483;BME280;74703;51.284;22.590;2023-12-20T11:30:10;98437.91;;;4.35;86.92
84483;BME280;74703;51.284;22.590;2023-12-20T11:40:17;98432.03;;;4.32;87.37
84483;BME280;74703;51.284;22.590;2023-12-20T11:45:21;98437.78;;;4.39;87.32
84483;BME280;74703;51.284;22.590;2023-12-20T11:50:23;98431.28;;;4.52;86.96
84483;BME280;74703;51.284;22.590;2023-12-20T11:55:24;98421.50;;;4.38;87.15
84483;BME280;74703;51.284;22.590;2023-12-20T12:00:25;98420.66;;;4.38;87.44
84483;BME280;74703;51.284;22.590;2023-12-20T12:05:25;98400.84;;;4.18;87.32
84483;BME280;74703;51.284;22.590;2023-12-20T12:10:26;98405.13;;;4.17;86.77
84483;BME280;74703;51.284;22.590;2023-12-20T12:15:26;98386.81;;;4.03;86.21
84483;BME280;74703;51.284;22.590;2023-12-20T12:20:27;98393.38;;;4.11;87.31
84483;BME280;74703;51.284;22.590;2023-12-20T12:25:29;98410.34;;;4.16;87.19
84483;BME280;74703;51.284;22.590;2023-12-20T12:30:30;98390.34;;;4.00;87.45
84483;BME280;74703;51.284;22.590;2023-12-20T12:35:31;98402.28;;;4.03;87.37
84483;BME280;74703;51.284;22.590;2023-12-20T12:40:34;98385.56;;;3.91;85.51
84483;BME280;74703;51.284;22.590;2023-12-20T12:45:36;98385.34;;;3.74;85.67
84483;BME280;74703;51.284;22.590;2023-12-20T12:50:36;98392.91;;;3.78;85.48
84483;BME280;74703;51.284;22.590;2023-12-20T12:55:37;98392.38;;;3.68;85.09
84483;BME280;74703;51.284;22.590;2023-12-20T13:00:37;98372.94;;;3.61;85.64
84483;BME280;74703;51.284;22.590;2023-12-20T13:05:38;98381.56;;;3.60;86.43
84483;BME280;74703;51.284;22.590;2023-12-20T13:10:38;98404.75;;;3.59;87.47
84483;BME280;74703;51.284;22.590;2023-12-20T13:15:39;98397.81;;;3.61;87.70
84483;BME280;74703;51.284;22.590;2023-12-20T13:20:40;98380.19;;;3.50;86.78
84483;BME280;74703;51.284;22.590;2023-12-20T13:25:41;98376.91;;;3.47;87.72
84483;BME280;74703;51.284;22.590;2023-12-20T13:30:42;98393.63;;;3.58;87.69
84483;BME280;74703;51.284;22.590;2023-12-20T13:35:42;98390.25;;;3.56;88.08
84483;BME280;74703;51.284;22.590;2023-12-20T13:40:43;98379.97;;;3.56;87.55
84483;BME280;74703;51.284;22.590;2023-12-20T13:45:44;98366.59;;;3.47;86.73
84483;BME280;74703;51.284;22.590;2023-12-20T13:50:44;98385.44;;;3.47;87.22
84483;BME280;74703;51.284;22.590;2023-12-20T13:55:45;98388.31;;;3.39;87.15
84483;BME280;74703;51.284;22.590;2023-12-20T14:00:46;98379.06;;;3.34;87.48
84483;BME280;74703;51.284;22.590;2023-12-20T14:05:46;98387.34;;;3.42;85.99
84483;BME280;74703;51.284;22.590;2023-12-20T14:10:47;98393.81;;;3.29;87.05
84483;BME280;74703;51.284;22.590;2023-12-20T14:15:47;98376.88;;;3.23;87.81
84483;BME280;74703;51.284;22.590;2023-12-20T14:20:49;98387.38;;;3.17;88.03
84483;BME280;74703;51.284;22.590;2023-12-20T14:25:51;98365.75;;;3.22;86.99
84483;BME280;74703;51.284;22.590;2023-12-20T14:30:51;98383.91;;;3.18;87.57
84483;BME280;74703;51.284;22.590;2023-12-20T14:35:52;98395.66;;;3.25;88.09
84483;BME280;74703;51.284;22.590;2023-12-20T14:40:53;98377.03;;;3.18;88.14
84483;BME280;74703;51.284;22.590;2023-12-20T14:45:54;98370.28;;;3.16;88.40
84483;BME280;74703;51.284;22.590;2023-12-20T14:50:55;98395.75;;;3.22;88.28
84483;BME280;74703;51.284;22.590;2023-12-20T14:55:55;98387.97;;;3.24;87.13
84483;BME280;74703;51.284;22.590;2023-12-20T15:00:56;98411.00;;;3.27;87.31
84483;BME280;74703;51.284;22.590;2023-12-20T15:05:56;98415.38;;;3.25;87.42
84483;BME280;74703;51.284;22.590;2023-12-20T15:10:59;98403.69;;;3.16;88.73
84483;BME280;74703;51.284;22.590;2023-12-20T15:15:59;98421.56;;;3.19;88.64
84483;BME280;74703;51.284;22.590;2023-12-20T15:21:00;98405.31;;;3.18;88.31
84483;BME280;74703;51.284;22.590;2023-12-20T15:26:02;98414.56;;;3.24;88.57
84483;BME280;74703;51.284;22.590;2023-12-20T15:31:04;98403.41;;;3.24;88.88
84483;BME280;74703;51.284;22.590;2023-12-20T15:36:06;98405.00;;;3.28;88.31
84483;BME280;74703;51.284;22.590;2023-12-20T15:41:06;98415.06;;;3.34;88.58
84483;BME280;74703;51.284;22.590;2023-12-20T15:46:09;98414.16;;;3.35;88.29
84483;BME280;74703;51.284;22.590;2023-12-20T15:51:10;98399.84;;;3.28;88.62
84483;BME280;74703;51.284;22.590;2023-12-20T15:56:11;98389.41;;;3.32;88.21
84483;BME280;74703;51.284;22.590;2023-12-20T16:01:12;98405.72;;;3.31;88.54
84483;BME280;74703;51.284;22.590;2023-12-20T16:06:13;98392.25;;;3.25;88.09
84483;BME280;74703;51.284;22.590;2023-12-20T16:11:13;98393.34;;;3.17;88.39
84483;BME280;74703;51.284;22.590;2023-12-20T16:16:14;98398.75;;;3.35;88.23
84483;BME280;74703;51.284;22.590;2023-12-20T16:21:14;98405.63;;;3.34;87.89
84483;BME280;74703;51.284;22.590;2023-12-20T16:26:15;98391.41;;;3.24;87.90
84483;BME280;74703;51.284;22.590;2023-12-20T16:31:16;98384.44;;;3.28;88.31
84483;BME280;74703;51.284;22.590;2023-12-20T16:36:17;98399.97;;;3.25;87.78
84483;BME280;74703;51.284;22.590;2023-12-20T16:41:18;98389.69;;;3.25;87.37
84483;BME280;74703;51.284;22.590;2023-12-20T16:46:18;98406.56;;;3.32;87.60
84483;BME280;74703;51.284;22.590;2023-12-20T16:51:19;98406.22;;;3.41;87.28
84483;BME280;74703;51.284;22.590;2023-12-20T16:56:19;98391.84;;;3.35;87.18
84483;BME280;74703;51.284;22.590;2023-12-20T17:01:20;98398.25;;;3.24;87.18
84483;BME280;74703;51.284;22.590;2023-12-20T17:06:22;98361.16;;;3.07;86.83
84483;BME280;74703;51.284;22.590;2023-12-20T17:11:25;98413.13;;;3.15;87.42
84483;BME280;74703;51.284;22.590;2023-12-20T17:16:25;98391.09;;;3.08;86.70
84483;BME280;74703;51.284;22.590;2023-12-20T17:21:26;98358.94;;;2.71;87.50
84483;BME280;74703;51.284;22.590;2023-12-20T17:26:26;98378.88;;;2.90;87.72
84483;BME280;74703;51.284;22.590;2023-12-20T17:31:27;98386.38;;;2.96;87.64
84483;BME280;74703;51.284;22.590;2023-12-20T17:36:27;98371.38;;;2.84;87.79
84483;BME280;74703;51.284;22.590;2023-12-20T17:41:28;98397.09;;;3.09;87.48
84483;BME280;74703;51.284;22.590;2023-12-20T17:46:28;98380.25;;;3.00;87.29
84483;BME280;74703;51.284;22.590;2023-12-20T17:51:29;98384.16;;;3.10;87.11
84483;BME280;74703;51.284;22.590;2023-12-20T17:56:29;98365.34;;;2.85;86.86
84483;BME280;74703;51.284;22.590;2023-12-20T18:01:30;98383.66;;;2.75;87.00
84483;BME280;74703;51.284;22.590;2023-12-20T18:06:32;98396.31;;;2.80;86.95
84483;BME280;74703;51.284;22.590;2023-12-20T18:11:32;98388.63;;;2.80;87.08
84483;BME280;74703;51.284;22.590;2023-12-20T18:16:33;98377.31;;;2.86;86.14
84483;BME280;74703;51.284;22.590;2023-12-20T18:21:34;98353.44;;;2.82;86.00
84483;BME280;74703;51.284;22.590;2023-12-20T18:26:35;98380.56;;;2.91;86.01
84483;BME280;74703;51.284;22.590;2023-12-20T18:31:36;98363.25;;;2.96;86.01
84483;BME280;74703;51.284;22.590;2023-12-20T18:36:36;98362.38;;;2.97;86.06
84483;BME280;74703;51.284;22.590;2023-12-20T18:41:37;98378.09;;;3.13;85.82
84483;BME280;74703;51.284;22.590;2023-12-20T18:46:39;98383.44;;;3.07;85.17
84483;BME280;74703;51.284;22.590;2023-12-20T18:51:40;98381.81;;;2.79;85.85
84483;BME280;74703;51.284;22.590;2023-12-20T18:56:40;98383.94;;;2.66;86.28
84483;BME280;74703;51.284;22.590;2023-12-20T19:01:43;98356.38;;;2.45;86.74
84483;BME280;74703;51.284;22.590;2023-12-20T19:06:43;98373.22;;;2.53;86.99
84483;BME280;74703;51.284;22.590;2023-12-20T19:11:44;98385.31;;;2.77;86.42
84483;BME280;74703;51.284;22.590;2023-12-20T19:16:44;98371.88;;;2.93;86.30
84483;BME280;74703;51.284;22.590;2023-12-20T19:21:45;98367.50;;;2.97;85.90
84483;BME280;74703;51.284;22.590;2023-12-20T19:26:46;98358.16;;;2.69;86.21
84483;BME280;74703;51.284;22.590;2023-12-20T19:31:46;98367.44;;;2.73;86.21
84483;BME280;74703;51.284;22.590;2023-12-20T19:36:48;98340.56;;;2.57;86.20
84483;BME280;74703;51.284;22.590;2023-12-20T19:41:48;98346.28;;;2.65;86.54
84483;BME280;74703;51.284;22.590;2023-12-20T19:46:49;98338.44;;;2.70;86.09
84483;BME280;74703;51.284;22.590;2023-12-20T19:51:49;98337.97;;;2.84;85.73
84483;BME280;74703;51.284;22.590;2023-12-20T19:56:50;98364.81;;;2.75;86.08
84483;BME280;74703;51.284;22.590;2023-12-20T20:01:50;98342.06;;;2.89;85.75
84483;BME280;74703;51.284;22.590;2023-12-20T20:06:51;98340.50;;;2.85;85.00
84483;BME280;74703;51.284;22.590;2023-12-20T20:11:52;98306.22;;;2.61;85.12
84483;BME280;74703;51.284;22.590;2023-12-20T20:16:53;98312.19;;;2.62;85.68
84483;BME280;74703;51.284;22.590;2023-12-20T20:21:54;98327.50;;;2.65;85.92
84483;BME280;74703;51.284;22.590;2023-12-20T20:26:55;98321.31;;;2.70;85.77
84483;BME280;74703;51.284;22.590;2023-12-20T20:31:55;98316.91;;;2.74;85.60
84483;BME280;74703;51.284;22.590;2023-12-20T20:36:56;98331.38;;;2.77;85.54
84483;BME280;74703;51.284;22.590;2023-12-20T20:41:57;98336.88;;;2.91;85.08
84483;BME280;74703;51.284;22.590;2023-12-20T20:46:57;98299.31;;;2.63;85.83
84483;BME280;74703;51.284;22.590;2023-12-20T20:51:58;98306.81;;;2.69;85.62
84483;BME280;74703;51.284;22.590;2023-12-20T20:56:59;98332.41;;;2.96;85.36
84483;BME280;74703;51.284;22.590;2023-12-20T21:02:01;98315.91;;;3.03;84.53
84483;BME280;74703;51.284;22.590;2023-12-20T21:07:02;98303.81;;;2.82;84.44
84483;BME280;74703;51.284;22.590;2023-12-20T21:12:03;98325.28;;;3.04;84.63
84483;BME280;74703;51.284;22.590;2023-12-20T21:17:04;98308.94;;;3.05;84.38
84483;BME280;74703;51.284;22.590;2023-12-20T21:22:05;98300.53;;;3.02;83.38
84483;BME280;74703;51.284;22.590;2023-12-20T21:27:05;98301.81;;;3.13;83.78
84483;BME280;74703;51.284;22.590;2023-12-20T21:32:10;98303.81;;;3.05;83.57
84483;BME280;74703;51.284;22.590;2023-12-20T21:37:12;98292.78;;;3.03;83.25
84483;BME280;74703;51.284;22.590;2023-12-20T21:42:12;98274.72;;;3.05;83.27
84483;BME280;74703;51.284;22.590;2023-12-20T21:47:13;98296.69;;;3.13;83.46
84483;BME280;74703;51.284;22.590;2023-12-20T21:52:14;98288.81;;;3.18;83.74
84483;BME280;74703;51.284;22.590;2023-12-20T21:57:15;98307.56;;;3.20;83.69
84483;BME280;74703;51.284;22.590;2023-12-20T22:02:15;98279.59;;;3.12;83.92
84483;BME280;74703;51.284;22.590;2023-12-20T22:07:16;98280.91;;;2.99;84.29
84483;BME280;74703;51.284;22.590;2023-12-20T22:12:17;98289.88;;;3.12;83.92
84483;BME280;74703;51.284;22.590;2023-12-20T22:17:17;98294.50;;;3.03;84.18
84483;BME280;74703;51.284;22.590;2023-12-20T22:22:18;98314.13;;;2.80;84.27
84483;BME280;74703;51.284;22.590;2023-12-20T22:27:18;98319.28;;;2.53;85.02
84483;BME280;74703;51.284;22.590;2023-12-20T22:32:19;98284.91;;;2.33;84.43
84483;BME280;74703;51.284;22.590;2023-12-20T22:37:20;98285.50;;;2.41;82.43
84483;BME280;74703;51.284;22.590;2023-12-20T22:42:21;98294.50;;;2.52;81.97
84483;BME280;74703;51.284;22.590;2023-12-20T22:47:22;98291.00;;;2.55;82.55
84483;BME280;74703;51.284;22.590;2023-12-20T22:52:23;98288.59;;;2.50;83.16
84483;BME280;74703;51.284;22.590;2023-12-20T22:57:24;98284.38;;;2.48;82.54
84483;BME280;74703;51.284;22.590;2023-12-20T23:02:25;98293.81;;;2.47;83.20
84483;BME280;74703;51.284;22.590;2023-12-20T23:07:26;98290.22;;;2.53;82.13
84483;BME280;74703;51.284;22.590;2023-12-20T23:12:26;98268.78;;;2.54;80.16
84483;BME280;74703;51.284;22.590;2023-12-20T23:17:27;98285.66;;;2.61;81.32
84483;BME280;74703;51.284;22.590;2023-12-20T23:22:27;98289.28;;;2.56;81.48
84483;BME280;74703;51.284;22.590;2023-12-20T23:27:28;98307.56;;;2.46;80.19
84483;BME280;74703;51.284;22.590;2023-12-20T23:32:28;98296.47;;;2.46;79.49
84483;BME280;74703;51.284;22.590;2023-12-20T23:37:29;98294.84;;;2.42;79.24
84483;BME280;74703;51.284;22.590;2023-12-20T23:42:30;98278.59;;;2.16;80.07
84483;BME280;74703;51.284;22.590;2023-12-20T23:47:30;98285.50;;;2.14;81.07
84483;BME280;74703;51.284;22.590;2023-12-20T23:52:31;98288.88;;;2.16;81.31
84483;BME280;74703;51.284;22.590;2023-12-20T23:57:31;98288.22;;;2.10;81.69
